Time;durP1;ratioP1;P1;durP2;ratioP2;P2;SDS_P1;SDS_P2;PMS_P1;PMS_P2;Temp;Humidity;BMP_temperature;BMP_pressure;BME280_temperature;BME280_humidity;BME280_pressure;Samples;Min_cycle;Max_cycle;Signal;HPM_P1;HPM_P2
2022/06/05 00:01:11;;;;;;;1.10;1.10;;;23.60;99.90;;;;;;5039010;28;20671;-63
2022/06/05 00:03:55;;;;;;;1.20;1.20;;;23.30;99.90;;;;;;5040859;28;20568;-62
2022/06/05 00:06:29;;;;;;;1.23;1.13;;;23.10;99.90;;;;;;5048052;28;20319;-62
2022/06/05 00:09:03;;;;;;;1.10;1.10;;;22.90;99.90;;;;;;5039888;28;20221;-63
2022/06/05 00:11:43;;;;;;;1.00;1.00;;;22.80;99.90;;;;;;5038856;28;20200;-64
2022/06/05 00:14:10;;;;;;;1.27;1.27;;;22.70;99.90;;;;;;5041361;28;20208;-63
2022/06/05 00:16:38;;;;;;;1.58;1.42;;;22.50;99.90;;;;;;5047309;28;20295;-64
2022/06/05 00:19:05;;;;;;;1.20;1.20;;;22.10;99.90;;;;;;5045607;28;20232;-63
2022/06/05 00:21:32;;;;;;;1.20;1.20;;;22.00;99.90;;;;;;5045756;28;20291;-63
2022/06/05 00:23:58;;;;;;;1.30;1.20;;;21.90;99.90;;;;;;5042471;28;20231;-62
2022/06/05 00:26:31;;;;;;;1.23;1.23;;;22.00;99.90;;;;;;5042204;28;20211;-62
2022/06/05 00:29:08;;;;;;;1.10;1.10;;;22.00;99.90;;;;;;5039347;28;20278;-64
2022/06/05 00:31:46;;;;;;;1.10;1.10;;;22.00;99.90;;;;;;5066162;28;20200;-62
2022/06/05 00:34:13;;;;;;;1.00;1.00;;;22.10;99.90;;;;;;5068363;28;20203;-62
2022/06/05 00:36:55;;;;;;;1.20;1.20;;;22.00;99.90;;;;;;5062509;28;20286;-62
2022/06/05 00:39:37;;;;;;;1.10;1.10;;;21.90;99.90;;;;;;5063638;28;20228;-63
2022/06/05 00:42:07;;;;;;;1.23;1.23;;;21.80;99.90;;;;;;5064223;28;20953;-63
2022/06/05 00:44:37;;;;;;;1.30;1.30;;;21.80;99.90;;;;;;5064085;28;20995;-62
2022/06/05 00:47:08;;;;;;;1.30;1.20;;;21.70;99.90;;;;;;5064630;28;20298;-62
2022/06/05 00:49:39;;;;;;;1.20;1.20;;;21.70;99.90;;;;;;5055571;28;20314;-62
2022/06/05 00:52:09;;;;;;;1.30;1.20;;;21.70;99.90;;;;;;5063172;28;20238;-64
2022/06/05 00:54:36;;;;;;;1.25;1.20;;;21.70;99.90;;;;;;5069495;28;20200;-63
2022/06/05 00:57:08;;;;;;;1.00;1.00;;;21.70;99.90;;;;;;5069754;28;20195;-62
2022/06/05 00:59:35;;;;;;;1.00;1.00;;;21.80;99.90;;;;;;5065176;28;20571;-63
2022/06/05 01:02:03;;;;;;;1.02;1.02;;;21.80;99.90;;;;;;5065369;28;20213;-64
2022/06/05 01:04:33;;;;;;;1.20;1.20;;;21.80;99.90;;;;;;5061659;28;20666;-63
2022/06/05 01:07:00;;;;;;;1.20;1.20;;;21.80;99.90;;;;;;5066732;28;20290;-64
2022/06/05 01:09:27;;;;;;;1.10;1.10;;;21.80;99.90;;;;;;5063258;28;20247;-63
2022/06/05 01:12:05;;;;;;;1.27;1.17;;;21.80;99.90;;;;;;5066381;28;20680;-62
2022/06/05 01:14:39;;;;;;;1.10;1.10;;;21.80;99.90;;;;;;5062668;28;20234;-62
2022/06/05 01:17:12;;;;;;;1.10;1.10;;;21.70;99.90;;;;;;5069231;28;20281;-63
2022/06/05 01:19:50;;;;;;;1.60;1.50;;;21.70;99.90;;;;;;5052307;28;20228;-62
2022/06/05 01:22:58;;;;;;;1.30;1.27;;;21.70;99.90;;;;;;5062278;28;20208;-63
2022/06/05 01:25:58;;;;;;;1.50;1.40;;;21.60;99.90;;;;;;5062994;28;20208;-63
2022/06/05 01:28:29;;;;;;;1.60;1.50;;;21.30;99.90;;;;;;5064629;28;20250;-63
2022/06/05 01:31:02;;;;;;;1.30;1.30;;;21.40;99.90;;;;;;5062475;28;20267;-63
2022/06/05 01:33:30;;;;;;;1.40;1.40;;;21.30;99.90;;;;;;5061143;28;20286;-63
2022/06/05 01:36:06;;;;;;;1.40;1.40;;;21.20;99.90;;;;;;5066111;28;20290;-62
2022/06/05 01:38:44;;;;;;;1.10;1.10;;;21.20;99.90;;;;;;5062110;28;20291;-63
2022/06/05 01:41:15;;;;;;;1.20;1.10;;;21.20;99.90;;;;;;5068474;28;20710;-63
2022/06/05 01:43:48;;;;;;;1.20;1.20;;;21.20;99.90;;;;;;5056539;28;20207;-63
2022/06/05 01:46:22;;;;;;;1.10;1.10;;;21.20;99.90;;;;;;5068390;28;20636;-63
2022/06/05 01:48:55;;;;;;;1.25;1.25;;;21.20;99.90;;;;;;5060863;28;20311;-63
2022/06/05 01:51:27;;;;;;;1.00;1.00;;;21.10;99.90;;;;;;5062670;28;20250;-63
2022/06/05 01:53:56;;;;;;;1.10;1.10;;;21.20;99.90;;;;;;5064690;28;20199;-63
2022/06/05 01:56:29;;;;;;;1.10;1.10;;;21.20;99.90;;;;;;5062405;28;20203;-63
2022/06/05 01:59:01;;;;;;;1.10;1.10;;;21.20;99.90;;;;;;5066336;28;20229;-63
2022/06/05 02:01:34;;;;;;;1.23;1.15;;;21.20;99.90;;;;;;5062929;28;20722;-63
2022/06/05 02:04:09;;;;;;;0.95;0.95;;;21.30;99.90;;;;;;5063447;28;20243;-63
2022/06/05 02:06:41;;;;;;;1.20;1.20;;;21.30;99.90;;;;;;5064009;28;20591;-63
2022/06/05 02:09:13;;;;;;;0.93;0.93;;;21.40;99.90;;;;;;5063560;28;20223;-63
2022/06/05 02:11:42;;;;;;;1.20;1.00;;;21.40;99.90;;;;;;5053128;28;20566;-63
2022/06/05 02:14:10;;;;;;;1.30;1.00;;;21.40;99.90;;;;;;5064482;28;20226;-63
2022/06/05 02:16:39;;;;;;;1.08;1.08;;;21.50;99.90;;;;;;5063596;28;20282;-62
2022/06/05 02:19:10;;;;;;;1.00;1.00;;;21.50;99.90;;;;;;5067050;28;20657;-63
2022/06/05 02:21:38;;;;;;;0.90;0.90;;;21.60;99.90;;;;;;5066071;28;20869;-63
2022/06/05 02:24:07;;;;;;;0.90;0.90;;;21.60;99.90;;;;;;5066606;28;20470;-62
2022/06/05 02:26:34;;;;;;;0.90;0.90;;;21.60;99.90;;;;;;5064742;28;20252;-63
2022/06/05 02:29:04;;;;;;;0.87;0.87;;;21.70;99.90;;;;;;5064994;28;21029;-63
2022/06/05 02:31:42;;;;;;;0.90;0.90;;;21.80;99.90;;;;;;5062194;28;20227;-63
2022/06/05 02:34:18;;;;;;;0.83;0.83;;;21.90;99.90;;;;;;5065842;28;20294;-63
2022/06/05 02:36:52;;;;;;;0.90;0.90;;;22.00;99.90;;;;;;5058495;28;20323;-62
2022/06/05 02:39:32;;;;;;;1.50;1.40;;;22.20;99.90;;;;;;5068025;28;20689;-63
2022/06/05 02:42:05;;;;;;;1.98;1.50;;;22.30;99.90;;;;;;5060710;28;20226;-63
2022/06/05 02:44:40;;;;;;;2.03;1.93;;;22.20;99.90;;;;;;5067036;28;20919;-63
2022/06/05 02:47:17;;;;;;;1.47;1.40;;;21.90;99.90;;;;;;5059617;28;20250;-63
2022/06/05 02:49:50;;;;;;;1.40;1.40;;;21.60;99.90;;;;;;5049055;28;20780;-63
2022/06/05 02:52:17;;;;;;;1.50;1.40;;;21.50;99.90;;;;;;5060787;28;20399;-63
2022/06/05 02:54:56;;;;;;;1.30;1.30;;;21.40;99.90;;;;;;5062711;28;20200;-63
2022/06/05 02:57:23;;;;;;;1.30;1.25;;;21.40;99.90;;;;;;5063752;28;20337;-62
2022/06/05 02:59:51;;;;;;;1.40;1.30;;;21.40;99.90;;;;;;5063077;28;20258;-63
2022/06/05 03:05:03;;;;;;;1.17;1.17;;;21.30;99.90;;;;;;5064102;28;20198;-63
2022/06/05 03:07:30;;;;;;;1.60;1.50;;;21.20;99.90;;;;;;5060080;28;20225;-63
2022/06/05 03:09:57;;;;;;;1.20;1.20;;;21.10;99.90;;;;;;5064064;28;20257;-63
2022/06/05 03:12:23;;;;;;;1.30;1.20;;;21.00;99.90;;;;;;5060935;28;20200;-63
2022/06/05 03:14:56;;;;;;;1.50;1.40;;;21.10;99.90;;;;;;5058229;28;20242;-63
2022/06/05 03:17:22;;;;;;;1.50;1.40;;;21.00;99.90;;;;;;5064753;28;20199;-63
2022/06/05 03:19:49;;;;;;;1.60;1.50;;;21.00;99.90;;;;;;5059068;28;20223;-62
2022/06/05 03:22:16;;;;;;;1.40;1.30;;;20.90;99.90;;;;;;5065547;28;20203;-62
2022/06/05 03:24:43;;;;;;;1.65;1.45;;;20.80;99.90;;;;;;5058909;28;20199;-62
2022/06/05 03:27:10;;;;;;;1.52;1.42;;;20.70;99.90;;;;;;5063413;28;20313;-63
2022/06/05 03:29:37;;;;;;;1.40;1.40;;;20.80;99.90;;;;;;5083560;22;20713;-65
2022/06/05 03:32:06;;;;;;;1.53;1.30;;;20.80;99.90;;;;;;5093098;28;20420;-67
2022/06/05 03:34:34;;;;;;;1.30;1.30;;;20.80;99.90;;;;;;5086993;28;20582;-66
2022/06/05 03:37:01;;;;;;;1.27;1.27;;;20.70;99.90;;;;;;5086337;28;20203;-64
2022/06/05 03:39:28;;;;;;;1.20;1.20;;;20.80;99.90;;;;;;5091015;28;20290;-66
2022/06/05 03:41:55;;;;;;;1.70;1.60;;;20.70;99.90;;;;;;5093850;28;20253;-66
2022/06/05 03:44:21;;;;;;;1.63;1.52;;;20.80;99.90;;;;;;5088130;28;20195;-66
2022/06/05 03:46:48;;;;;;;1.70;1.60;;;20.80;99.90;;;;;;5079734;28;20203;-68
2022/06/05 03:49:17;;;;;;;1.75;1.65;;;20.70;99.90;;;;;;5081300;28;20222;-65
2022/06/05 03:51:46;;;;;;;1.90;1.80;;;20.60;99.90;;;;;;5083717;28;20290;-65
2022/06/05 03:54:13;;;;;;;1.60;1.50;;;20.50;99.90;;;;;;5083401;28;20293;-65
2022/06/05 03:56:40;;;;;;;1.70;1.60;;;20.50;99.90;;;;;;5084410;28;20210;-67
2022/06/05 03:59:07;;;;;;;1.70;1.60;;;20.50;99.90;;;;;;5083624;28;20775;-68
2022/06/05 04:01:33;;;;;;;1.70;1.60;;;20.50;99.90;;;;;;5080783;28;20321;-65
2022/06/05 04:04:00;;;;;;;1.50;1.40;;;20.50;99.90;;;;;;5078515;28;20230;-67
2022/06/05 04:06:30;;;;;;;2.07;1.93;;;20.50;99.90;;;;;;5081828;28;20199;-67
2022/06/05 04:08:58;;;;;;;2.77;2.03;;;20.60;99.90;;;;;;5084280;28;20313;-66
2022/06/05 04:11:26;;;;;;;2.87;2.67;;;20.40;99.90;;;;;;5087048;28;20224;-66
2022/06/05 04:13:53;;;;;;;2.47;2.27;;;20.10;99.90;;;;;;5085718;28;20567;-64
2022/06/05 04:16:21;;;;;;;2.10;2.00;;;19.80;99.90;;;;;;5089182;28;20244;-66
2022/06/05 04:18:50;;;;;;;1.77;1.67;;;19.80;99.90;;;;;;5089812;28;20228;-65
2022/06/05 04:21:20;;;;;;;1.60;1.50;;;19.80;99.90;;;;;;5087129;28;20260;-63
2022/06/05 04:23:49;;;;;;;1.23;1.23;;;19.80;99.90;;;;;;5086162;28;20203;-64
2022/06/05 04:26:18;;;;;;;1.00;1.00;;;19.80;99.90;;;;;;5086841;28;20213;-65
2022/06/05 04:28:45;;;;;;;1.20;1.20;;;19.80;99.90;;;;;;5086741;28;20321;-66
2022/06/05 04:31:20;;;;;;;1.20;1.20;;;19.80;99.90;;;;;;5086439;28;20230;-64
2022/06/05 04:33:48;;;;;;;1.05;1.05;;;19.80;99.90;;;;;;5080480;28;20630;-64
2022/06/05 04:36:15;;;;;;;1.00;1.00;;;19.90;99.90;;;;;;5089099;28;20202;-65
2022/06/05 04:38:42;;;;;;;1.13;1.13;;;20.00;99.90;;;;;;5078899;28;20256;-65
2022/06/05 04:41:11;;;;;;;1.00;1.00;;;20.00;99.90;;;;;;5090167;28;20257;-65
2022/06/05 04:43:38;;;;;;;0.90;0.90;;;20.10;99.90;;;;;;5081407;28;20318;-63
2022/06/05 04:46:05;;;;;;;0.98;0.98;;;20.10;99.90;;;;;;5082912;28;20203;-63
2022/06/05 04:48:33;;;;;;;1.10;1.00;;;20.20;99.90;;;;;;5089165;28;20664;-65
2022/06/05 04:51:03;;;;;;;2.80;1.08;;;20.20;99.90;;;;;;5082437;28;20201;-64
2022/06/05 04:53:29;;;;;;;1.20;1.10;;;20.20;99.90;;;;;;5088981;28;20203;-64
2022/06/05 04:55:57;;;;;;;0.98;0.98;;;20.20;99.90;;;;;;5082322;28;20282;-64
2022/06/05 04:58:25;;;;;;;0.90;0.90;;;20.30;99.90;;;;;;5090404;28;20233;-66
2022/06/05 05:00:52;;;;;;;1.00;1.00;;;20.40;99.90;;;;;;5081799;28;20689;-65
2022/06/05 05:03:19;;;;;;;1.10;1.10;;;20.50;99.90;;;;;;5082183;28;20203;-65
2022/06/05 05:05:46;;;;;;;1.00;1.00;;;20.60;99.90;;;;;;5087872;28;20235;-65
2022/06/05 05:08:12;;;;;;;1.00;1.00;;;20.60;99.90;;;;;;5081881;28;20705;-65
2022/06/05 05:10:39;;;;;;;1.08;1.08;;;20.60;99.90;;;;;;5074293;28;20215;-64
2022/06/05 05:13:06;;;;;;;1.45;1.35;;;20.60;99.90;;;;;;5084688;28;20223;-65
2022/06/05 05:15:34;;;;;;;1.20;1.20;;;20.60;99.90;;;;;;5089744;28;20205;-65
2022/06/05 05:18:02;;;;;;;1.10;1.10;;;20.50;99.90;;;;;;5082031;28;20230;-65
2022/06/05 05:20:29;;;;;;;1.20;1.20;;;20.50;99.90;;;;;;5082990;28;20223;-64
2022/06/05 05:22:56;;;;;;;1.10;1.10;;;20.60;99.90;;;;;;5086443;28;20290;-64
2022/06/05 05:25:23;;;;;;;0.95;0.95;;;20.60;99.90;;;;;;5082024;28;20223;-65
2022/06/05 05:27:50;;;;;;;1.13;1.13;;;20.70;99.90;;;;;;5089532;28;20227;-64
2022/06/05 05:30:17;;;;;;;1.20;1.20;;;20.70;99.90;;;;;;5081442;28;20234;-65
2022/06/05 05:32:45;;;;;;;1.45;1.40;;;20.70;99.90;;;;;;5089599;28;20302;-64
2022/06/05 05:35:12;;;;;;;1.20;1.20;;;20.70;99.90;;;;;;5080873;28;20650;-64
2022/06/05 05:37:39;;;;;;;1.30;1.20;;;20.70;99.90;;;;;;5081125;28;20199;-65
2022/06/05 05:42:52;;;;;;;1.50;1.40;;;20.70;99.90;;;;;;5084683;28;20206;-66
2022/06/05 05:45:19;;;;;;;1.30;1.30;;;20.70;99.90;;;;;;5083615;28;20285;-64
2022/06/05 05:47:47;;;;;;;1.20;1.20;;;20.70;99.90;;;;;;5076072;28;20293;-66
2022/06/05 05:50:16;;;;;;;1.50;1.50;;;20.60;99.90;;;;;;5084415;28;20221;-65
2022/06/05 05:52:43;;;;;;;1.70;1.60;;;20.50;99.90;;;;;;5082663;28;20670;-64
2022/06/05 05:55:12;;;;;;;1.67;1.58;;;20.50;99.90;;;;;;5084154;28;20255;-64
2022/06/05 05:57:40;;;;;;;1.60;1.50;;;20.40;99.90;;;;;;5084208;28;20211;-67
2022/06/05 06:00:12;;;;;;;1.65;1.55;;;20.50;99.90;;;;;;5084330;28;20707;-66
2022/06/05 06:02:39;;;;;;;1.73;1.63;;;20.50;99.90;;;;;;5081213;28;20322;-66
2022/06/05 06:05:10;;;;;;;2.30;2.10;;;20.40;99.90;;;;;;5085875;28;20313;-65
2022/06/05 06:07:36;;;;;;;2.10;2.00;;;20.30;99.90;;;;;;5082356;28;20234;-66
2022/06/05 06:10:05;;;;;;;2.10;2.00;;;20.20;99.90;;;;;;5087379;28;20229;-63
2022/06/05 06:12:32;;;;;;;2.00;1.90;;;20.20;99.90;;;;;;5082614;28;20202;-63
2022/06/05 06:14:59;;;;;;;1.27;1.20;;;20.20;99.90;;;;;;5086654;28;20198;-65
2022/06/05 06:17:26;;;;;;;1.60;1.27;;;20.20;99.90;;;;;;5086168;28;20198;-64
2022/06/05 06:19:52;;;;;;;1.10;1.10;;;20.30;99.90;;;;;;5083066;28;20223;-65
2022/06/05 06:22:21;;;;;;;0.90;0.90;;;20.30;99.90;;;;;;5088180;28;20222;-65
2022/06/05 06:24:48;;;;;;;0.90;0.90;;;20.40;99.90;;;;;;5080438;28;20203;-64
2022/06/05 06:27:15;;;;;;;0.93;0.93;;;20.60;99.90;;;;;;5088506;28;20207;-65
2022/06/05 06:29:42;;;;;;;1.15;0.95;;;20.60;99.90;;;;;;5082210;28;20255;-65
2022/06/05 06:32:09;;;;;;;0.90;0.90;;;20.70;99.90;;;;;;5092275;28;20791;-65
2022/06/05 06:34:36;;;;;;;0.87;0.87;;;20.70;99.90;;;;;;5080914;28;20206;-65
2022/06/05 06:37:04;;;;;;;0.88;0.88;;;20.70;99.90;;;;;;5086697;28;20286;-66
2022/06/05 06:39:32;;;;;;;0.93;0.93;;;20.70;99.90;;;;;;5088182;28;20219;-65
2022/06/05 06:41:59;;;;;;;0.90;0.90;;;20.80;99.90;;;;;;5086104;28;20243;-65
2022/06/05 06:44:26;;;;;;;1.10;0.93;;;20.90;99.90;;;;;;5081158;28;20285;-65
2022/06/05 06:46:53;;;;;;;0.90;0.90;;;21.00;99.90;;;;;;5083939;28;20203;-66
2022/06/05 06:49:20;;;;;;;1.00;1.00;;;21.10;99.90;;;;;;5085937;28;20222;-65
2022/06/05 06:51:47;;;;;;;1.00;1.00;;;21.10;99.90;;;;;;5083755;28;20195;-67
2022/06/05 06:54:14;;;;;;;1.10;1.10;;;21.20;99.90;;;;;;5081943;28;20868;-64
2022/06/05 06:56:44;;;;;;;1.27;1.27;;;21.30;99.90;;;;;;5069823;28;20205;-64
2022/06/05 06:59:11;;;;;;;1.20;1.20;;;21.40;99.90;;;;;;5083956;28;20243;-65
2022/06/05 07:01:37;;;;;;;1.10;1.10;;;21.50;99.90;;;;;;5083621;28;20301;-67
2022/06/05 07:04:05;;;;;;;1.00;1.00;;;21.50;99.90;;;;;;5082929;28;20230;-64
2022/06/05 07:06:32;;;;;;;1.08;1.00;;;21.60;99.90;;;;;;5082074;28;20281;-64
2022/06/05 07:08:58;;;;;;;1.55;1.02;;;21.70;99.90;;;;;;5083661;28;20249;-64
2022/06/05 07:11:25;;;;;;;0.82;0.82;;;21.80;99.90;;;;;;5083124;28;20234;-64
2022/06/05 07:13:56;;;;;;;1.00;1.00;;;21.90;99.90;;;;;;5085470;28;20277;-65
2022/06/05 07:16:22;;;;;;;1.13;1.13;;;22.00;99.90;;;;;;5083534;28;20199;-65
2022/06/05 07:18:50;;;;;;;1.05;1.05;;;22.10;99.90;;;;;;5083223;28;20298;-65
2022/06/05 07:21:19;;;;;;;1.10;1.10;;;22.20;99.90;;;;;;5081526;28;20218;-66
2022/06/05 07:23:47;;;;;;;1.10;1.10;;;22.30;99.90;;;;;;5083077;28;20283;-65
2022/06/05 07:26:17;;;;;;;1.00;1.00;;;22.30;99.90;;;;;;5097113;28;20226;-65
2022/06/05 07:28:43;;;;;;;1.20;1.20;;;22.30;99.90;;;;;;5099272;28;20220;-65
2022/06/05 07:31:13;;;;;;;1.38;1.38;;;22.30;99.90;;;;;;5088021;28;20666;-65
2022/06/05 07:33:42;;;;;;;1.10;1.10;;;22.20;99.90;;;;;;5059636;28;20310;-66
2022/06/05 07:36:11;;;;;;;1.10;1.10;;;22.20;99.90;;;;;;5064315;28;20630;-66
2022/06/05 07:38:40;;;;;;;1.25;1.25;;;22.30;99.90;;;;;;5071603;28;20264;-66
2022/06/05 07:41:14;;;;;;;1.38;1.30;;;22.40;99.90;;;;;;5079080;28;20203;-66
2022/06/05 07:43:41;;;;;;;1.00;1.00;;;22.50;99.90;;;;;;5077608;28;20290;-64
2022/06/05 07:46:08;;;;;;;1.30;1.25;;;22.60;99.90;;;;;;5075836;28;20203;-65
2022/06/05 07:48:36;;;;;;;1.20;1.20;;;22.70;99.90;;;;;;5089656;28;20221;-66
2022/06/05 07:56:33;;;;;;;1.40;1.40;;;22.90;99.90;;;;;;5085164;28;20567;-65
2022/06/05 07:59:00;;;;;;;1.38;1.38;;;22.80;99.90;;;;;;5088324;28;20223;-66
2022/06/05 08:01:27;;;;;;;1.63;1.53;;;22.70;99.90;;;;;;5085433;28;20223;-65
2022/06/05 08:03:55;;;;;;;1.42;1.42;;;22.70;99.90;;;;;;5086598;28;20290;-66
2022/06/05 08:06:22;;;;;;;1.48;1.48;;;22.60;99.90;;;;;;5085594;28;20201;-64
2022/06/05 08:08:49;;;;;;;1.65;1.60;;;22.50;99.90;;;;;;5088160;28;20253;-65
2022/06/05 08:11:16;;;;;;;1.60;1.50;;;22.40;99.90;;;;;;5088316;28;20282;-66
2022/06/05 08:13:43;;;;;;;1.70;1.60;;;22.30;99.90;;;;;;5088686;28;20209;-66
2022/06/05 08:16:11;;;;;;;1.80;1.70;;;22.40;99.90;;;;;;5082785;28;20247;-66
2022/06/05 08:18:38;;;;;;;1.70;1.60;;;22.40;99.90;;;;;;5072984;28;20311;-67
2022/06/05 08:21:06;;;;;;;1.30;1.30;;;22.50;99.90;;;;;;5064247;28;20271;-65
2022/06/05 08:23:33;;;;;;;1.37;1.37;;;22.30;99.90;;;;;;5069282;28;20235;-65
2022/06/05 08:26:01;;;;;;;1.83;1.73;;;22.40;99.90;;;;;;5075038;28;20657;-65
2022/06/05 08:28:28;;;;;;;1.95;1.85;;;22.40;99.90;;;;;;5078215;28;20568;-65
2022/06/05 08:30:55;;;;;;;1.80;1.70;;;22.30;99.90;;;;;;5065866;28;20212;-65
2022/06/05 08:33:23;;;;;;;1.40;1.40;;;22.30;99.90;;;;;;5068714;28;20206;-66
2022/06/05 08:35:50;;;;;;;1.40;1.40;;;22.30;99.90;;;;;;5062362;28;20204;-65
2022/06/05 08:41:27;;;;;;;1.50;1.40;;;22.60;99.90;;;;;;5069384;28;20219;-67
2022/06/05 08:44:07;;;;;;;1.35;1.35;;;22.90;99.90;;;;;;5060559;28;20961;-65
2022/06/05 08:46:39;;;;;;;1.73;1.63;;;23.00;99.90;;;;;;5071084;28;20665;-64
2022/06/05 08:49:11;;;;;;;1.52;1.45;;;23.00;99.90;;;;;;5060790;28;20225;-65
2022/06/05 08:51:52;;;;;;;1.42;1.40;;;23.00;99.90;;;;;;5063170;28;20202;-64
2022/06/05 08:54:24;;;;;;;1.52;1.52;;;23.00;99.90;;;;;;5063088;28;20206;-65
2022/06/05 08:56:56;;;;;;;2.50;2.38;;;23.00;99.90;;;;;;5060985;28;20283;-65
2022/06/05 08:59:28;;;;;;;1.67;1.58;;;23.10;99.90;;;;;;5062537;28;20315;-66
2022/06/05 09:01:59;;;;;;;1.40;1.40;;;23.30;99.90;;;;;;5060646;28;20226;-66
2022/06/05 09:04:44;;;;;;;1.30;1.30;;;23.50;99.90;;;;;;5065749;28;20228;-65
2022/06/05 09:07:14;;;;;;;1.30;1.30;;;23.70;99.90;;;;;;5059494;28;20695;-66
2022/06/05 09:09:47;;;;;;;1.50;1.50;;;23.90;99.90;;;;;;5065679;28;20229;-66
2022/06/05 09:12:23;;;;;;;1.13;1.13;;;24.00;99.90;;;;;;5058673;28;20331;-66
2022/06/05 09:14:57;;;;;;;1.57;1.47;;;23.90;99.90;;;;;;5059886;28;20200;-65
2022/06/05 09:17:26;;;;;;;1.40;1.40;;;23.90;99.90;;;;;;5069001;28;20204;-65
2022/06/05 09:19:56;;;;;;;1.27;1.27;;;23.80;99.90;;;;;;5060284;28;20222;-66
2022/06/05 09:22:32;;;;;;;1.50;1.40;;;23.90;99.90;;;;;;5063061;28;20212;-66
2022/06/05 09:25:14;;;;;;;1.23;1.23;;;24.00;99.90;;;;;;5076058;28;20257;-64
2022/06/05 09:27:52;;;;;;;1.60;1.50;;;24.20;99.90;;;;;;5073163;28;20198;-66
2022/06/05 09:30:24;;;;;;;1.95;1.85;;;24.40;99.90;;;;;;5080352;22;20227;-64
2022/06/05 09:33:03;;;;;;;1.53;1.43;;;24.60;99.90;;;;;;5057808;28;20196;-64
2022/06/05 09:35:35;;;;;;;1.50;1.50;;;24.70;99.90;;;;;;5061094;28;20199;-64
2022/06/05 09:38:15;;;;;;;1.40;1.40;;;24.70;99.90;;;;;;5063319;28;20211;-64
2022/06/05 09:41:01;;;;;;;1.30;1.30;;;24.60;99.90;;;;;;5060304;28;20219;-64
2022/06/05 09:43:51;;;;;;;1.60;1.50;;;24.80;99.90;;;;;;5061476;28;20882;-63
2022/06/05 09:46:34;;;;;;;1.40;1.40;;;24.90;99.90;;;;;;5059683;28;20206;-63
2022/06/05 09:49:04;;;;;;;1.20;1.20;;;24.90;99.90;;;;;;5066461;28;20220;-63
2022/06/05 09:51:31;;;;;;;1.30;1.30;;;25.00;99.90;;;;;;5068367;28;20207;-64
2022/06/05 09:54:03;;;;;;;1.20;1.20;;;25.10;99.90;;;;;;5072615;28;20774;-64
2022/06/05 09:59:30;;;;;;;1.27;1.27;;;25.20;99.90;;;;;;5061774;28;20658;-64
2022/06/05 10:02:00;;;;;;;1.55;1.48;;;25.30;99.90;;;;;;5072379;28;20234;-64
2022/06/05 10:04:30;;;;;;;1.00;1.00;;;25.40;99.90;;;;;;5076059;28;20617;-64
2022/06/05 10:07:03;;;;;;;1.20;1.20;;;25.60;99.90;;;;;;5060263;28;20203;-64
2022/06/05 10:09:32;;;;;;;1.30;1.30;;;25.60;99.90;;;;;;5065291;28;20761;-64
2022/06/05 10:12:03;;;;;;;1.10;1.10;;;25.60;99.90;;;;;;5059007;28;20266;-65
2022/06/05 10:14:39;;;;;;;1.10;1.10;;;25.60;99.90;;;;;;5062913;28;20689;-64
2022/06/05 10:17:26;;;;;;;1.00;1.00;;;25.90;99.90;;;;;;5058026;28;20288;-63
2022/06/05 10:20:08;;;;;;;1.10;1.10;;;26.20;99.90;;;;;;5053886;28;20223;-64
2022/06/05 10:22:44;;;;;;;1.20;1.10;;;26.70;99.90;;;;;;5054195;28;20312;-64
2022/06/05 10:25:25;;;;;;;1.30;1.20;;;26.70;99.90;;;;;;5055542;28;20324;-64
2022/06/05 10:27:58;;;;;;;1.10;1.10;;;26.60;99.90;;;;;;5070686;28;20203;-64
2022/06/05 10:30:31;;;;;;;1.10;1.10;;;26.50;99.90;;;;;;5057191;28;20235;-64
2022/06/05 10:33:02;;;;;;;1.00;1.00;;;26.30;99.90;;;;;;5058658;28;20249;-65
2022/06/05 10:35:40;;;;;;;1.13;1.02;;;26.00;99.90;;;;;;5053496;28;20665;-64
2022/06/05 10:38:24;;;;;;;1.10;1.10;;;26.00;99.90;;;;;;5056938;28;20286;-64
2022/06/05 10:40:55;;;;;;;1.00;1.00;;;26.00;99.90;;;;;;5065253;28;20220;-64
2022/06/05 10:43:26;;;;;;;1.88;1.30;;;26.10;99.90;;;;;;5056122;28;20230;-64
2022/06/05 10:45:59;;;;;;;1.25;1.25;;;26.10;99.90;;;;;;5057875;28;20206;-64
2022/06/05 10:48:38;;;;;;;1.55;1.45;;;26.10;99.90;;;;;;5060680;28;20285;-64
2022/06/05 10:51:17;;;;;;;1.10;1.10;;;26.30;99.90;;;;;;5057172;28;20200;-63
2022/06/05 10:53:52;;;;;;;1.02;1.02;;;26.50;99.90;;;;;;5077178;28;20199;-65
2022/06/05 10:56:29;;;;;;;0.90;0.90;;;26.90;99.90;;;;;;5069687;28;20293;-65
2022/06/05 10:59:05;;;;;;;1.35;1.10;;;27.10;99.90;;;;;;5062718;28;20207;-63
2022/06/05 11:01:46;;;;;;;1.20;1.10;;;27.40;99.90;;;;;;5073402;28;20206;-63
2022/06/05 11:04:26;;;;;;;1.35;1.25;;;27.60;99.90;;;;;;5057295;28;20712;-64
2022/06/05 11:07:00;;;;;;;1.20;1.20;;;27.50;99.90;;;;;;5063069;28;20219;-64
2022/06/05 11:09:39;;;;;;;1.40;1.30;;;27.40;99.90;;;;;;5064768;28;20398;-65
2022/06/05 11:15:10;;;;;;;1.00;1.00;;;27.20;99.90;;;;;;5067264;28;20260;-65
2022/06/05 11:17:49;;;;;;;1.10;1.10;;;26.90;99.90;;;;;;5065571;28;20238;-64
2022/06/05 11:20:18;;;;;;;1.30;1.20;;;26.90;99.90;;;;;;5066103;28;20216;-64
2022/06/05 11:22:56;;;;;;;1.27;1.17;;;27.10;99.90;;;;;;5065269;28;20334;-65
2022/06/05 11:25:30;;;;;;;1.20;1.10;;;27.20;99.90;;;;;;5059434;28;20195;-64
2022/06/05 11:28:38;;;;;;;1.02;1.00;;;27.60;99.90;;;;;;5056280;28;20395;-64
2022/06/05 11:31:17;;;;;;;1.00;1.00;;;27.70;99.90;;;;;;5027869;28;20287;-64
2022/06/05 11:33:54;;;;;;;0.98;0.98;;;27.60;99.90;;;;;;5061613;28;20290;-65
2022/06/05 11:36:25;;;;;;;1.17;1.08;;;27.50;99.90;;;;;;5069566;28;20627;-65
2022/06/05 11:39:12;;;;;;;0.80;0.80;;;27.50;99.90;;;;;;5074053;28;20203;-64
2022/06/05 11:41:47;;;;;;;1.10;0.90;;;27.50;99.90;;;;;;5062424;28;20206;-65
2022/06/05 11:44:25;;;;;;;1.20;1.10;;;27.40;99.90;;;;;;5069624;28;20226;-64
2022/06/05 11:46:59;;;;;;;1.00;1.00;;;27.20;99.90;;;;;;5073674;28;20519;-64
2022/06/05 11:49:49;;;;;;;0.95;0.95;;;27.00;99.90;;;;;;5076614;28;20215;-64
2022/06/05 11:52:21;;;;;;;1.75;1.15;;;27.00;99.90;;;;;;5076209;28;20285;-63
2022/06/05 11:54:58;;;;;;;1.10;1.10;;;27.10;99.90;;;;;;5064125;28;20204;-63
2022/06/05 11:57:34;;;;;;;1.25;1.10;;;27.00;99.90;;;;;;5068066;28;20204;-63
2022/06/05 12:00:12;;;;;;;0.80;0.80;;;26.90;99.90;;;;;;5074217;28;20305;-63
2022/06/05 12:03:05;;;;;;;1.10;1.05;;;26.80;99.90;;;;;;5075023;28;20265;-65
2022/06/05 12:05:43;;;;;;;0.95;0.95;;;26.70;99.90;;;;;;5073485;28;20471;-63
2022/06/05 12:08:13;;;;;;;0.82;0.82;;;26.60;99.90;;;;;;5069935;28;20228;-63
2022/06/05 12:10:49;;;;;;;0.90;0.90;;;26.90;99.90;;;;;;5072346;28;20262;-64
2022/06/05 12:13:37;;;;;;;0.70;0.70;;;27.00;99.90;;;;;;5083302;28;20192;-65
2022/06/05 12:16:07;;;;;;;0.73;0.73;;;27.00;99.90;;;;;;5074176;28;20263;-64
2022/06/05 12:18:40;;;;;;;0.90;0.90;;;27.20;99.90;;;;;;5077766;28;20290;-64
2022/06/05 12:21:14;;;;;;;0.60;0.60;;;27.10;99.90;;;;;;5069914;28;20286;-64
2022/06/05 12:23:47;;;;;;;0.70;0.70;;;26.80;99.90;;;;;;5075464;28;20306;-64
2022/06/05 12:26:22;;;;;;;0.80;0.80;;;26.80;99.90;;;;;;5070526;28;20264;-63
2022/06/05 12:28:58;;;;;;;0.50;0.50;;;26.90;99.90;;;;;;5068963;28;20202;-64
2022/06/05 12:31:29;;;;;;;0.70;0.70;;;26.80;99.90;;;;;;5072372;28;20279;-63
2022/06/05 12:34:02;;;;;;;0.77;0.77;;;26.80;99.90;;;;;;5073836;28;20195;-64
2022/06/05 12:36:34;;;;;;;0.73;0.73;;;26.80;99.90;;;;;;5069114;28;20207;-64
2022/06/05 12:39:02;;;;;;;0.77;0.77;;;26.80;99.90;;;;;;5068694;28;20226;-64
2022/06/05 12:41:45;;;;;;;0.60;0.60;;;26.90;99.90;;;;;;5068907;28;20204;-64
2022/06/05 12:44:22;;;;;;;1.13;0.60;;;26.90;99.90;;;;;;5072995;28;20261;-64
2022/06/05 12:47:03;;;;;;;0.60;0.60;;;26.90;99.90;;;;;;5074101;28;20264;-64
2022/06/05 12:49:45;;;;;;;0.55;0.47;;;27.00;99.90;;;;;;5075490;28;20309;-64
2022/06/05 12:52:27;;;;;;;0.50;0.50;;;27.10;99.90;;;;;;5071362;28;20209;-64
2022/06/05 12:55:00;;;;;;;0.60;0.60;;;27.20;99.90;;;;;;5073290;28;20199;-64
2022/06/05 12:57:31;;;;;;;0.57;0.57;;;27.30;99.90;;;;;;5076374;28;20290;-66
2022/06/05 13:00:05;;;;;;;0.60;0.60;;;27.30;99.90;;;;;;5079729;28;20246;-64
2022/06/05 13:02:37;;;;;;;0.70;0.70;;;27.30;99.90;;;;;;5077280;28;20286;-64
2022/06/05 13:05:21;;;;;;;0.70;0.70;;;27.30;99.90;;;;;;5073370;28;20210;-64
2022/06/05 13:07:53;;;;;;;1.20;0.70;;;27.20;99.90;;;;;;5067306;28;20574;-62
2022/06/05 13:10:28;;;;;;;0.60;0.60;;;27.20;99.90;;;;;;5075029;28;20215;-63
2022/06/05 13:13:04;;;;;;;0.50;0.50;;;27.10;99.90;;;;;;5075174;28;20679;-63
2022/06/05 13:15:34;;;;;;;0.70;0.70;;;27.20;99.90;;;;;;5074645;28;20199;-64
2022/06/05 13:18:06;;;;;;;0.70;0.70;;;27.30;99.90;;;;;;5075843;28;20231;-64
2022/06/05 13:20:42;;;;;;;0.70;0.70;;;27.40;99.90;;;;;;5074732;28;20310;-63
2022/06/05 13:23:18;;;;;;;0.60;0.60;;;27.60;99.90;;;;;;5073226;28;20266;-64
2022/06/05 13:25:57;;;;;;;1.08;0.70;;;27.70;99.90;;;;;;5071171;28;20227;-64
2022/06/05 13:28:40;;;;;;;0.47;0.47;;;27.70;99.90;;;;;;5077486;28;20281;-64
2022/06/05 13:31:15;;;;;;;0.70;0.70;;;27.70;99.90;;;;;;5079201;28;20208;-64